Time;durP1;ratioP1;P1;durP2;ratioP2;P2;SDS_P1;SDS_P2;PMS_P1;PMS_P2;Temp;Humidity;BMP_temperature;BMP_pressure;BME280_temperature;BME280_humidity;BME280_pressure;Samples;Min_cycle;Max_cycle;Signal;HPM_P1;HPM_P2
2021/12/06 00:01:02;;;;;;;8.85;3.92;;;8.40;97.10;;;;;;5013727;28;20133;-49
2021/12/06 00:03:35;;;;;;;9.38;4.35;;;8.40;97.10;;;;;;5008359;28;20096;-49
2021/12/06 00:06:02;;;;;;;7.30;4.95;;;8.40;97.10;;;;;;5019486;28;20045;-50
2021/12/06 00:08:27;;;;;;;15.60;4.68;;;8.40;97.10;;;;;;5013932;28;20029;-49
2021/12/06 00:10:53;;;;;;;10.02;4.55;;;8.30;97.10;;;;;;5016485;28;20059;-49
2021/12/06 00:13:22;;;;;;;7.20;4.07;;;8.40;97.10;;;;;;5020291;28;20444;-49
2021/12/06 00:15:50;;;;;;;9.43;4.85;;;8.40;97.10;;;;;;5017707;28;20084;-49
2021/12/06 00:18:16;;;;;;;9.27;5.13;;;8.40;97.20;;;;;;5018583;28;20372;-49
2021/12/06 00:20:41;;;;;;;8.38;4.82;;;8.40;97.10;;;;;;5011120;28;20338;-50
2021/12/06 00:23:07;;;;;;;6.32;4.68;;;8.30;97.10;;;;;;5016613;28;20467;-49
2021/12/06 00:25:33;;;;;;;9.18;4.97;;;8.40;97.20;;;;;;5015430;28;20057;-49
2021/12/06 00:27:58;;;;;;;7.20;3.70;;;8.30;97.10;;;;;;5020212;28;20026;-50
2021/12/06 00:30:24;;;;;;;11.30;4.80;;;8.30;97.20;;;;;;5018549;28;20061;-49
2021/12/06 00:32:49;;;;;;;10.73;5.10;;;8.30;97.10;;;;;;5021854;28;20033;-49
2021/12/06 00:35:22;;;;;;;10.73;4.55;;;8.30;97.20;;;;;;5014065;28;20022;-50
2021/12/06 00:37:58;;;;;;;9.20;4.00;;;8.30;97.20;;;;;;5015587;28;20041;-49
2021/12/06 00:40:34;;;;;;;11.95;5.38;;;8.30;97.20;;;;;;5016986;28;20546;-50
2021/12/06 00:43:00;;;;;;;5.50;3.95;;;8.30;97.20;;;;;;5018654;28;20034;-49
2021/12/06 00:45:26;;;;;;;5.45;3.80;;;8.30;97.50;;;;;;5014420;28;20072;-50
2021/12/06 00:47:52;;;;;;;6.80;4.32;;;8.30;97.20;;;;;;5018007;28;20383;-49
2021/12/06 00:50:18;;;;;;;8.50;4.60;;;8.30;97.20;;;;;;5015670;28;20112;-50
2021/12/06 00:52:44;;;;;;;11.57;5.38;;;8.30;97.20;;;;;;5013134;28;20539;-49
2021/12/06 00:55:10;;;;;;;8.70;4.65;;;8.30;97.20;;;;;;5016304;28;20053;-49
2021/12/06 00:57:39;;;;;;;12.75;6.20;;;8.30;97.20;;;;;;5016053;28;20030;-49
2021/12/06 01:00:24;;;;;;;13.25;6.05;;;8.30;97.10;;;;;;5018045;28;20045;-49
2021/12/06 01:02:50;;;;;;;16.33;6.65;;;8.30;97.20;;;;;;5017829;28;20064;-49
2021/12/06 01:05:17;;;;;;;12.10;5.72;;;8.30;97.20;;;;;;5017451;28;20049;-49
2021/12/06 01:07:43;;;;;;;12.85;5.72;;;8.30;97.20;;;;;;5019211;28;20076;-50
2021/12/06 01:10:09;;;;;;;15.98;5.95;;;8.30;97.20;;;;;;5018541;28;20036;-49
2021/12/06 01:12:36;;;;;;;12.90;5.82;;;8.30;97.20;;;;;;5017937;28;20026;-50
2021/12/06 01:15:04;;;;;;;12.40;6.78;;;8.30;97.20;;;;;;5014881;28;20412;-50
2021/12/06 01:17:29;;;;;;;15.70;6.35;;;8.30;97.20;;;;;;5014319;28;20022;-50
2021/12/06 01:19:55;;;;;;;14.77;6.32;;;8.30;97.20;;;;;;5021325;28;20042;-50
2021/12/06 01:23:06;;;;;;;12.43;5.93;;;8.30;97.20;;;;;;5012899;28;20030;-50
2021/12/06 01:25:23;;;;;;;13.02;5.80;;;8.30;97.20;;;;;;5005928;28;20389;-49
2021/12/06 01:30:27;;;;;;;9.95;5.15;;;8.30;97.20;;;;;;5017510;28;20296;-50
2021/12/06 01:33:28;;;;;;;13.48;6.45;;;8.20;97.20;;;;;;5019176;28;20032;-50
2021/12/06 01:41:19;;;;;;;11.75;5.40;;;8.30;97.20;;;;;;5013409;28;20049;-50
2021/12/06 01:44:03;;;;;;;16.77;6.65;;;8.30;97.30;;;;;;5020874;28;20402;-50
2021/12/06 01:46:30;;;;;;;15.98;6.00;;;8.30;97.20;;;;;;5016778;28;20030;-50
2021/12/06 01:48:56;;;;;;;14.57;6.72;;;8.30;97.20;;;;;;5016150;28;20030;-50
2021/12/06 01:51:21;;;;;;;12.25;5.75;;;8.30;97.20;;;;;;5013610;28;20030;-50
2021/12/06 01:53:47;;;;;;;11.15;5.75;;;8.30;97.20;;;;;;5015670;28;20040;-50
2021/12/06 01:56:12;;;;;;;13.88;6.03;;;8.30;97.30;;;;;;5012760;28;20445;-50
2021/12/06 01:58:38;;;;;;;11.00;5.43;;;8.30;97.30;;;;;;5016071;28;20068;-50
2021/12/06 02:01:04;;;;;;;14.20;6.65;;;8.30;97.30;;;;;;5012306;28;20048;-50
2021/12/06 02:03:29;;;;;;;19.00;6.72;;;8.30;97.30;;;;;;5017190;28;20029;-50
2021/12/06 02:05:55;;;;;;;13.13;6.90;;;8.30;97.20;;;;;;5001454;28;20037;-49
2021/12/06 02:08:21;;;;;;;14.35;5.72;;;8.30;97.30;;;;;;5017893;28;20046;-49
2021/12/06 02:10:48;;;;;;;19.10;7.53;;;8.30;97.30;;;;;;5016683;28;20037;-50
2021/12/06 02:13:13;;;;;;;15.18;6.72;;;8.30;97.30;;;;;;5014615;28;20096;-49
2021/12/06 02:15:48;;;;;;;22.40;8.30;;;8.30;97.30;;;;;;5018601;28;20033;-49
2021/12/06 02:18:38;;;;;;;21.67;8.35;;;8.30;97.20;;;;;;5017161;28;20030;-50
2021/12/06 02:21:26;;;;;;;14.63;6.50;;;8.30;97.20;;;;;;5015097;28;20053;-49
2021/12/06 02:23:52;;;;;;;14.05;6.50;;;8.30;97.20;;;;;;5017095;28;20063;-49
2021/12/06 02:26:19;;;;;;;11.45;6.35;;;8.30;97.20;;;;;;5013995;28;20533;-49
2021/12/06 02:28:45;;;;;;;14.82;6.88;;;8.30;97.20;;;;;;5016835;28;20034;-49
2021/12/06 02:31:11;;;;;;;15.68;7.35;;;8.20;97.30;;;;;;5020625;28;20026;-49
2021/12/06 02:33:38;;;;;;;20.35;7.88;;;8.30;97.40;;;;;;5018212;28;20041;-49
2021/12/06 02:36:04;;;;;;;17.52;7.95;;;8.30;97.20;;;;;;5022602;28;20026;-49
2021/12/06 02:38:31;;;;;;;18.83;7.95;;;8.30;97.40;;;;;;5021560;28;20103;-49
2021/12/06 02:40:56;;;;;;;14.35;7.43;;;8.30;97.30;;;;;;5018368;28;20034;-49
2021/12/06 02:43:22;;;;;;;19.33;7.75;;;8.30;97.30;;;;;;5015926;28;20045;-50
2021/12/06 02:45:48;;;;;;;19.50;7.60;;;8.30;97.30;;;;;;5016141;28;20030;-50
2021/12/06 02:48:15;;;;;;;20.35;7.97;;;8.30;97.30;;;;;;5020183;28;20022;-49
2021/12/06 02:50:48;;;;;;;16.42;7.10;;;8.30;97.30;;;;;;5020120;28;20032;-49
2021/12/06 02:53:14;;;;;;;12.48;6.25;;;8.30;97.30;;;;;;5016248;28;20117;-49
2021/12/06 02:55:42;;;;;;;11.10;5.93;;;8.30;97.40;;;;;;5021502;28;20041;-49
2021/12/06 02:58:43;;;;;;;15.00;6.43;;;8.30;97.30;;;;;;5013102;28;20245;-49
2021/12/06 03:01:11;;;;;;;10.43;5.63;;;8.20;97.30;;;;;;5021329;28;20042;-50
2021/12/06 03:03:38;;;;;;;10.13;5.28;;;8.30;97.30;;;;;;5019112;28;20030;-49
2021/12/06 03:06:04;;;;;;;10.57;5.40;;;8.30;97.40;;;;;;5019200;28;20512;-49
2021/12/06 03:08:35;;;;;;;10.38;4.97;;;8.30;97.40;;;;;;5023781;28;20036;-50
2021/12/06 03:11:01;;;;;;;8.68;4.47;;;8.20;97.30;;;;;;5019251;28;20064;-50
2021/12/06 03:13:27;;;;;;;8.57;4.18;;;8.30;97.40;;;;;;5019334;28;20108;-50
2021/12/06 03:15:52;;;;;;;9.68;4.55;;;8.30;97.30;;;;;;5019852;28;20436;-50
2021/12/06 03:18:18;;;;;;;8.40;4.97;;;8.30;97.20;;;;;;5022881;28;20083;-50
2021/12/06 03:20:44;;;;;;;9.07;5.07;;;8.30;97.30;;;;;;5013687;28;20038;-50
2021/12/06 03:23:09;;;;;;;7.22;4.45;;;8.30;97.30;;;;;;5019139;28;20113;-49
2021/12/06 03:25:35;;;;;;;10.07;4.47;;;8.30;97.30;;;;;;5008336;28;20033;-50
2021/12/06 03:28:01;;;;;;;5.45;3.72;;;8.30;97.40;;;;;;5021659;28;20083;-50
2021/12/06 03:30:27;;;;;;;10.48;5.03;;;8.20;97.30;;;;;;5019078;28;20036;-49
2021/12/06 03:32:53;;;;;;;12.40;5.22;;;8.30;97.40;;;;;;5016445;28;20022;-49
2021/12/06 03:35:18;;;;;;;12.55;5.28;;;8.30;97.30;;;;;;5016461;28;20045;-50
2021/12/06 03:37:44;;;;;;;13.45;5.43;;;8.30;97.40;;;;;;5021492;28;20018;-50
2021/12/06 03:40:10;;;;;;;11.23;5.47;;;8.30;97.40;;;;;;5018944;28;20046;-50
2021/12/06 03:42:36;;;;;;;8.25;4.05;;;8.30;97.40;;;;;;5014365;28;20041;-50
2021/12/06 03:45:05;;;;;;;9.88;4.85;;;8.30;97.40;;;;;;5011732;28;20041;-50
2021/12/06 03:47:32;;;;;;;8.77;4.72;;;8.30;97.30;;;;;;5019165;28;20080;-50
2021/12/06 03:49:58;;;;;;;9.18;4.70;;;8.30;97.40;;;;;;5018309;28;20263;-50
2021/12/06 03:52:25;;;;;;;8.23;4.15;;;8.30;97.30;;;;;;5016323;28;20042;-49
2021/12/06 03:54:51;;;;;;;7.38;4.57;;;8.30;97.40;;;;;;5017193;28;20213;-49
2021/12/06 03:57:17;;;;;;;8.13;4.10;;;8.20;97.30;;;;;;5015185;28;20080;-49
2021/12/06 03:59:43;;;;;;;8.77;4.00;;;8.30;97.40;;;;;;5013475;28;20045;-49
2021/12/06 04:02:09;;;;;;;8.30;4.18;;;8.30;97.30;;;;;;5019369;28;20353;-49
2021/12/06 04:04:36;;;;;;;5.78;3.80;;;8.30;97.30;;;;;;5018927;28;20125;-50
2021/12/06 04:07:02;;;;;;;8.98;4.32;;;8.30;97.40;;;;;;5016324;28;20465;-49
2021/12/06 04:09:28;;;;;;;9.93;4.30;;;8.20;97.30;;;;;;5018927;28;20032;-49
2021/12/06 04:11:53;;;;;;;8.18;4.82;;;8.20;97.30;;;;;;5015266;28;20034;-49
2021/12/06 04:14:19;;;;;;;10.00;4.30;;;8.20;97.30;;;;;;5018327;28;20038;-49
2021/12/06 04:16:45;;;;;;;8.98;4.40;;;8.30;97.40;;;;;;5018241;28;20079;-49
2021/12/06 04:19:11;;;;;;;9.80;4.70;;;8.20;97.30;;;;;;5018274;28;20075;-49
2021/12/06 04:21:39;;;;;;;8.32;5.13;;;8.20;97.30;;;;;;5013090;28;20044;-49
2021/12/06 04:24:06;;;;;;;12.20;4.82;;;8.20;97.40;;;;;;5019941;28;20405;-50
2021/12/06 04:26:32;;;;;;;10.40;5.00;;;8.30;97.40;;;;;;5018624;28;20041;-49
2021/12/06 04:28:59;;;;;;;7.65;4.18;;;8.20;97.30;;;;;;5015305;28;20409;-49
2021/12/06 04:31:33;;;;;;;8.95;4.80;;;8.30;97.40;;;;;;5018878;28;20113;-49
2021/12/06 04:33:59;;;;;;;7.82;4.40;;;8.30;97.40;;;;;;5018849;28;20026;-50
2021/12/06 04:36:25;;;;;;;7.22;4.38;;;8.30;97.40;;;;;;5015242;28;20072;-49
2021/12/06 04:38:51;;;;;;;8.25;4.10;;;8.20;97.40;;;;;;5013353;28;20045;-50
2021/12/06 04:41:17;;;;;;;8.77;4.68;;;8.30;97.40;;;;;;5018993;28;20037;-49
2021/12/06 04:43:43;;;;;;;9.20;5.18;;;8.30;97.40;;;;;;5016684;28;20080;-49
2021/12/06 04:46:09;;;;;;;12.15;4.25;;;8.20;97.30;;;;;;5018875;28;20061;-49
2021/12/06 04:48:34;;;;;;;10.55;5.13;;;8.20;97.30;;;;;;5019726;28;20045;-50
2021/12/06 04:51:01;;;;;;;8.95;5.20;;;8.20;97.40;;;;;;5017484;28;20034;-50
2021/12/06 04:53:35;;;;;;;8.23;4.95;;;8.20;97.40;;;;;;5018530;28;20460;-49
2021/12/06 04:56:12;;;;;;;9.52;5.22;;;8.20;97.40;;;;;;5018411;28;20025;-50
2021/12/06 04:58:45;;;;;;;9.23;4.78;;;8.20;97.30;;;;;;5013312;28;20477;-50
2021/12/06 05:01:17;;;;;;;11.63;5.32;;;8.20;97.30;;;;;;5019735;28;20037;-49
2021/12/06 05:03:43;;;;;;;12.95;6.57;;;8.30;97.40;;;;;;5020387;28;20476;-50
2021/12/06 05:06:13;;;;;;;18.80;8.32;;;8.20;97.30;;;;;;5018904;28;20064;-52
2021/12/06 05:08:43;;;;;;;19.77;7.35;;;8.20;97.40;;;;;;5021000;28;20033;-50
2021/12/06 05:11:09;;;;;;;18.95;6.90;;;8.20;97.40;;;;;;5016021;28;20516;-50
2021/12/06 05:13:40;;;;;;;15.85;7.25;;;8.20;97.40;;;;;;5019284;28;20510;-50
2021/12/06 05:16:06;;;;;;;11.70;6.60;;;8.20;97.40;;;;;;5015071;28;20068;-50
2021/12/06 05:18:31;;;;;;;20.33;7.47;;;8.20;97.40;;;;;;5018630;28;20029;-50
2021/12/06 05:20:57;;;;;;;18.75;7.97;;;8.20;97.40;;;;;;5013460;28;20036;-50
2021/12/06 05:23:23;;;;;;;19.63;8.68;;;8.20;97.30;;;;;;5001284;28;20364;-50
2021/12/06 05:25:48;;;;;;;18.17;6.93;;;8.20;97.40;;;;;;5018328;28;20026;-50
2021/12/06 05:28:16;;;;;;;21.08;9.00;;;8.20;97.40;;;;;;5016212;28;20100;-50
2021/12/06 05:30:44;;;;;;;17.73;8.27;;;8.20;97.40;;;;;;5014234;28;20022;-50
2021/12/06 05:33:17;;;;;;;18.10;7.82;;;8.20;97.30;;;;;;5015137;28;20037;-49
2021/12/06 05:35:44;;;;;;;19.42;8.48;;;8.20;97.40;;;;;;5014388;28;20052;-50
2021/12/06 05:38:10;;;;;;;23.90;8.77;;;8.20;97.40;;;;;;5017571;28;20506;-50
2021/12/06 05:40:36;;;;;;;20.98;8.32;;;8.20;97.40;;;;;;5017539;28;20124;-50
2021/12/06 05:43:03;;;;;;;19.10;8.50;;;8.20;97.50;;;;;;5011063;28;20350;-50
2021/12/06 05:45:31;;;;;;;20.55;8.57;;;8.20;97.40;;;;;;5014244;28;20030;-50
2021/12/06 05:47:57;;;;;;;18.58;8.55;;;8.20;97.40;;;;;;5018092;28;20406;-50
2021/12/06 05:50:24;;;;;;;25.90;8.73;;;8.20;97.50;;;;;;5018574;28;20088;-49
2021/12/06 05:52:54;;;;;;;19.48;9.43;;;8.20;97.40;;;;;;5021993;28;20021;-50
2021/12/06 05:55:20;;;;;;;22.98;9.10;;;8.20;97.40;;;;;;5015150;28;20037;-51
2021/12/06 05:57:47;;;;;;;16.75;7.47;;;8.20;97.40;;;;;;5016906;28;20030;-50
2021/12/06 06:00:15;;;;;;;18.45;8.68;;;8.20;97.40;;;;;;5018477;28;20068;-50
2021/12/06 06:02:41;;;;;;;21.98;8.88;;;8.20;97.50;;;;;;5037946;28;20056;-50
2021/12/06 06:05:08;;;;;;;24.75;9.73;;;8.20;97.40;;;;;;5021233;28;20816;-50
2021/12/06 06:07:34;;;;;;;16.77;7.80;;;8.30;97.40;;;;;;5022592;28;20042;-49
2021/12/06 06:10:00;;;;;;;20.98;8.32;;;8.20;97.40;;;;;;5027159;28;20036;-49
2021/12/06 06:12:26;;;;;;;24.25;8.27;;;8.20;97.40;;;;;;5027293;28;20025;-50
2021/12/06 06:14:53;;;;;;;17.42;8.07;;;8.20;97.40;;;;;;5026303;28;20029;-50
2021/12/06 06:17:19;;;;;;;15.32;8.13;;;8.20;97.50;;;;;;5017318;28;20357;-49
2021/12/06 06:19:52;;;;;;;20.95;7.90;;;8.20;97.50;;;;;;5024327;28;20129;-49
2021/12/06 06:22:19;;;;;;;17.92;8.20;;;8.20;97.40;;;;;;5019923;28;20022;-49
2021/12/06 06:24:45;;;;;;;24.85;8.00;;;8.20;97.40;;;;;;5024120;28;20022;-49
2021/12/06 06:27:10;;;;;;;19.50;8.90;;;8.20;97.50;;;;;;5022582;28;20032;-49
2021/12/06 06:29:36;;;;;;;16.95;8.13;;;8.20;97.50;;;;;;5020116;28;20038;-49
2021/12/06 06:32:04;;;;;;;21.88;7.47;;;8.20;97.50;;;;;;5023299;28;20030;-49
2021/12/06 06:34:30;;;;;;;22.35;8.77;;;8.20;97.50;;;;;;5025379;28;20364;-49
2021/12/06 06:36:56;;;;;;;17.08;7.93;;;8.20;97.50;;;;;;5021305;28;20433;-49
2021/12/06 06:39:22;;;;;;;18.73;8.15;;;8.20;97.50;;;;;;5024908;28;20103;-49
2021/12/06 06:41:51;;;;;;;18.92;8.20;;;8.20;97.50;;;;;;5022554;28;20022;-49
2021/12/06 06:44:17;;;;;;;21.98;8.13;;;8.20;97.50;;;;;;5020097;28;20452;-49
2021/12/06 06:46:45;;;;;;;24.83;8.18;;;8.20;97.50;;;;;;5023429;28;20033;-49
2021/12/06 06:49:12;;;;;;;23.35;7.97;;;8.20;97.50;;;;;;5018158;28;20105;-49
2021/12/06 06:51:38;;;;;;;12.70;6.60;;;8.20;97.10;;;;;;5021167;28;20438;-50
2021/12/06 06:54:05;;;;;;;20.48;7.47;;;8.20;97.30;;;;;;5024429;28;20080;-49
2021/12/06 06:56:31;;;;;;;15.23;7.07;;;8.20;97.20;;;;;;5021856;28;20042;-49
2021/12/06 06:58:57;;;;;;;17.75;7.53;;;8.20;97.20;;;;;;5018286;28;20105;-50
2021/12/06 07:01:23;;;;;;;17.77;7.60;;;8.20;97.20;;;;;;5023163;28;20037;-49
2021/12/06 07:03:53;;;;;;;22.27;8.13;;;8.20;97.20;;;;;;5024061;28;20033;-49
2021/12/06 07:06:20;;;;;;;19.33;7.93;;;8.20;97.20;;;;;;5021146;28;20041;-49
2021/12/06 07:08:45;;;;;;;24.10;8.75;;;8.20;97.10;;;;;;5024497;28;20497;-49
2021/12/06 07:11:11;;;;;;;15.43;7.40;;;8.20;97.20;;;;;;5004300;28;20120;-49
2021/12/06 07:13:38;;;;;;;14.77;7.10;;;8.20;97.20;;;;;;5021489;28;20030;-49
2021/12/06 07:16:08;;;;;;;14.65;7.20;;;8.20;97.20;;;;;;5022636;28;20026;-50
2021/12/06 07:18:33;;;;;;;18.80;7.47;;;8.20;97.20;;;;;;5021552;28;20028;-49
2021/12/06 07:20:59;;;;;;;16.95;7.93;;;8.20;97.20;;;;;;5023570;28;20109;-49
2021/12/06 07:23:25;;;;;;;18.10;7.40;;;8.20;97.30;;;;;;5020190;28;20504;-50
2021/12/06 07:25:51;;;;;;;19.92;8.07;;;8.20;97.30;;;;;;5023576;28;20045;-49
2021/12/06 07:28:17;;;;;;;18.88;7.75;;;8.20;97.30;;;;;;5023225;28;20465;-49
2021/12/06 07:30:42;;;;;;;20.38;7.65;;;8.20;97.30;;;;;;5020938;28;20028;-50
2021/12/06 07:33:08;;;;;;;19.52;7.78;;;8.20;97.30;;;;;;5022348;28;20250;-49
2021/12/06 07:35:34;;;;;;;20.13;9.40;;;8.20;97.30;;;;;;5021446;28;20022;-49
2021/12/06 07:38:03;;;;;;;16.83;7.90;;;8.30;97.30;;;;;;5023628;28;20032;-49
2021/12/06 07:40:31;;;;;;;19.92;7.90;;;8.20;97.30;;;;;;5020878;28;20116;-49
2021/12/06 07:42:57;;;;;;;27.65;8.50;;;8.20;97.30;;;;;;5023108;28;20032;-50
2021/12/06 07:45:23;;;;;;;24.88;9.25;;;8.20;97.40;;;;;;5017088;28;20022;-49
2021/12/06 07:47:49;;;;;;;18.50;7.85;;;8.20;97.30;;;;;;5022187;28;20014;-49
2021/12/06 07:50:19;;;;;;;16.75;7.30;;;8.20;97.30;;;;;;5020354;28;20029;-49
2021/12/06 07:52:45;;;;;;;21.63;8.05;;;8.20;97.40;;;;;;5022757;28;20431;-49
2021/12/06 07:55:13;;;;;;;18.45;8.60;;;8.20;97.40;;;;;;5019718;28;20117;-50
2021/12/06 07:57:39;;;;;;;18.55;7.75;;;8.20;97.40;;;;;;5022941;28;20457;-49
2021/12/06 08:00:15;;;;;;;14.48;7.03;;;8.20;97.40;;;;;;5015973;28;20071;-49
2021/12/06 08:02:41;;;;;;;16.73;7.20;;;8.20;97.40;;;;;;5023414;28;20441;-49
2021/12/06 08:07:54;;;;;;;21.08;7.05;;;8.30;97.80;;;;;;5023102;28;20080;-49
2021/12/06 08:10:19;;;;;;;15.98;6.70;;;8.30;97.50;;;;;;5020595;28;20397;-50
2021/12/06 08:12:45;;;;;;;17.73;6.57;;;8.30;97.40;;;;;;5023676;28;20104;-49
2021/12/06 08:15:11;;;;;;;13.88;6.80;;;8.30;97.50;;;;;;5019329;28;20038;-50
2021/12/06 08:17:37;;;;;;;19.60;7.25;;;8.30;97.40;;;;;;5019557;28;20057;-49
2021/12/06 08:20:05;;;;;;;17.73;7.68;;;8.30;97.50;;;;;;5021998;28;20441;-49
2021/12/06 08:22:31;;;;;;;17.13;7.47;;;8.30;97.50;;;;;;5021805;28;20072;-49
2021/12/06 08:24:57;;;;;;;17.48;7.93;;;8.20;97.50;;;;;;5020668;28;20472;-49
2021/12/06 08:27:23;;;;;;;17.50;7.63;;;8.20;97.50;;;;;;5022246;28;20129;-49
2021/12/06 08:29:48;;;;;;;14.15;5.93;;;8.30;97.50;;;;;;5017812;28;20120;-49
2021/12/06 08:32:14;;;;;;;17.40;7.55;;;8.30;97.50;;;;;;5019357;28;20101;-49
2021/12/06 08:34:41;;;;;;;15.18;7.63;;;8.30;97.50;;;;;;5022355;28;20499;-49
2021/12/06 08:37:08;;;;;;;10.13;5.47;;;8.30;97.50;;;;;;5019943;28;20034;-49
2021/12/06 08:39:35;;;;;;;13.27;6.22;;;8.30;97.50;;;;;;5021578;28;20033;-49
2021/12/06 08:42:01;;;;;;;14.27;6.68;;;8.30;97.60;;;;;;5022121;28;20029;-50
2021/12/06 08:44:26;;;;;;;16.38;6.90;;;8.30;97.60;;;;;;5017454;28;20045;-49
2021/12/06 08:46:52;;;;;;;13.27;6.75;;;8.30;97.60;;;;;;5022145;28;20079;-50
2021/12/06 08:49:17;;;;;;;15.48;6.93;;;8.30;97.60;;;;;;5015623;28;20021;-49
2021/12/06 08:51:49;;;;;;;20.60;8.02;;;8.30;97.60;;;;;;5022868;28;20088;-49
2021/12/06 08:54:19;;;;;;;24.48;8.68;;;8.30;97.60;;;;;;5021169;28;20030;-50
2021/12/06 08:56:48;;;;;;;19.05;8.68;;;8.30;97.60;;;;;;5019249;28;20022;-50
2021/12/06 08:59:14;;;;;;;19.33;6.53;;;8.30;97.60;;;;;;5020613;28;20038;-49
2021/12/06 09:01:40;;;;;;;14.98;6.85;;;8.30;97.60;;;;;;5019558;28;20026;-49
2021/12/06 09:04:11;;;;;;;14.75;7.63;;;8.30;97.60;;;;;;5021998;28;20137;-50
2021/12/06 09:06:39;;;;;;;17.67;7.13;;;8.30;97.70;;;;;;5020316;28;20528;-50
2021/12/06 09:09:07;;;;;;;14.35;7.00;;;8.30;97.70;;;;;;5020542;28;20042;-50
2021/12/06 09:11:34;;;;;;;19.85;8.38;;;8.30;97.70;;;;;;5022577;28;20055;-49
2021/12/06 09:14:00;;;;;;;15.48;7.32;;;8.30;97.70;;;;;;5021025;28;20029;-49
2021/12/06 09:16:26;;;;;;;18.27;6.78;;;8.30;97.70;;;;;;5017722;28;20099;-49
2021/12/06 09:18:53;;;;;;;15.68;6.95;;;8.30;97.70;;;;;;5020551;28;20109;-49
2021/12/06 09:21:21;;;;;;;16.70;7.90;;;8.30;97.70;;;;;;5021004;28;20037;-50
2021/12/06 09:23:49;;;;;;;14.95;7.13;;;8.30;97.70;;;;;;5021450;28;20067;-49
2021/12/06 09:26:15;;;;;;;12.52;5.47;;;8.30;97.70;;;;;;5018628;28;20022;-50
2021/12/06 09:28:41;;;;;;;14.07;6.82;;;8.30;97.70;;;;;;5021386;28;20034;-49
2021/12/06 09:31:08;;;;;;;14.38;5.95;;;8.30;97.70;;;;;;5018459;28;20033;-50
2021/12/06 09:33:35;;;;;;;16.98;6.57;;;8.30;97.70;;;;;;5021121;28;20285;-49
2021/12/06 09:36:03;;;;;;;15.65;5.53;;;8.30;97.80;;;;;;5019892;28;20147;-50
2021/12/06 09:38:35;;;;;;;16.58;6.10;;;8.30;97.80;;;;;;5020180;28;20026;-49
2021/12/06 09:41:04;;;;;;;14.32;6.47;;;8.30;97.80;;;;;;5022061;28;20259;-50
2021/12/06 09:43:30;;;;;;;9.77;5.80;;;8.30;97.80;;;;;;5019769;28;20026;-50
2021/12/06 09:45:56;;;;;;;11.82;5.30;;;8.40;97.80;;;;;;5019641;28;20025;-50
2021/12/06 09:48:22;;;;;;;15.60;6.38;;;8.40;97.80;;;;;;5005216;28;20378;-50
2021/12/06 09:50:55;;;;;;;13.32;6.68;;;8.40;97.80;;;;;;5024839;28;20033;-50
2021/12/06 09:53:36;;;;;;;12.68;6.50;;;8.40;97.90;;;;;;5022940;28;20104;-50
2021/12/06 09:56:06;;;;;;;15.90;6.38;;;8.40;97.80;;;;;;5023367;28;20082;-50
2021/12/06 09:58:32;;;;;;;16.83;6.90;;;8.40;97.90;;;;;;5026327;28;20029;-50
2021/12/06 10:01:06;;;;;;;15.68;6.63;;;8.40;97.90;;;;;;5017870;28;20380;-50
2021/12/06 10:03:33;;;;;;;13.85;5.60;;;8.40;97.90;;;;;;5024442;28;20104;-49
2021/12/06 10:06:04;;;;;;;13.45;5.95;;;8.40;97.90;;;;;;5023156;28;20033;-50
2021/12/06 10:08:33;;;;;;;14.52;7.13;;;8.40;97.90;;;;;;5026124;28;20048;-50
2021/12/06 10:10:59;;;;;;;13.55;5.47;;;8.40;97.90;;;;;;5022811;28;20460;-50
2021/12/06 10:13:25;;;;;;;10.68;5.45;;;8.40;97.90;;;;;;5024945;28;20032;-50
2021/12/06 10:15:52;;;;;;;28.35;8.70;;;8.40;97.90;;;;;;5017791;28;20030;-49
2021/12/06 10:18:20;;;;;;;33.00;7.45;;;8.40;97.90;;;;;;5024075;28;20321;-50
2021/12/06 10:20:46;;;;;;;13.38;6.43;;;8.40;97.90;;;;;;5024371;28;20579;-49
2021/12/06 10:23:14;;;;;;;21.48;7.00;;;8.40;97.90;;;;;;5022487;28;20034;-49
2021/12/06 10:25:45;;;;;;;21.45;7.05;;;8.40;97.90;;;;;;5022007;28;20030;-49
2021/12/06 10:28:12;;;;;;;12.43;5.05;;;8.40;97.90;;;;;;5023354;28;20075;-49
2021/12/06 10:30:43;;;;;;;9.57;4.90;;;8.50;98.00;;;;;;5020456;28;20033;-49
2021/12/06 10:33:15;;;;;;;8.35;4.35;;;8.40;98.00;;;;;;5022389;28;20081;-49
2021/12/06 10:35:43;;;;;;;17.83;7.07;;;8.40;98.00;;;;;;5022110;28;20026;-49
2021/12/06 10:38:10;;;;;;;22.40;6.97;;;8.40;98.00;;;;;;5018886;28;20121;-50
2021/12/06 10:40:40;;;;;;;12.07;5.57;;;8.40;98.00;;;;;;5023581;28;20470;-50
2021/12/06 10:43:11;;;;;;;10.13;4.82;;;8.40;98.00;;;;;;5024627;28;20026;-49
2021/12/06 10:45:42;;;;;;;17.17;6.38;;;8.40;98.00;;;;;;5018924;28;20365;-49
2021/12/06 10:48:18;;;;;;;11.45;4.15;;;8.50;98.10;;;;;;5019844;28;20026;-49
2021/12/06 10:50:47;;;;;;;5.95;3.22;;;8.50;98.10;;;;;;5025098;28;20490;-49
2021/12/06 10:53:14;;;;;;;20.95;5.80;;;8.50;98.20;;;;;;5021869;28;20052;-49
2021/12/06 10:55:41;;;;;;;5.45;3.25;;;8.50;98.10;;;;;;5022462;28;20449;-49
2021/12/06 10:58:13;;;;;;;8.55;3.72;;;8.50;98.10;;;;;;5023185;28;20393;-50
2021/12/06 11:00:51;;;;;;;7.18;3.38;;;8.50;98.10;;;;;;5020086;28;20373;-49
2021/12/06 11:03:21;;;;;;;10.10;3.33;;;8.50;98.10;;;;;;5022384;28;20022;-49
2021/12/06 11:05:51;;;;;;;8.85;3.42;;;8.50;98.10;;;;;;5021836;28;20445;-49
2021/12/06 11:08:19;;;;;;;5.97;3.45;;;8.50;98.20;;;;;;5024776;28;20072;-49
2021/12/06 11:10:52;;;;;;;12.88;5.10;;;8.50;98.20;;;;;;5021954;28;20026;-49
2021/12/06 11:13:34;;;;;;;6.88;3.88;;;8.50;98.20;;;;;;5023173;28;20366;-49
2021/12/06 11:16:08;;;;;;;8.73;3.95;;;8.50;98.20;;;;;;5019046;28;20028;-49
2021/12/06 11:18:45;;;;;;;7.18;2.75;;;8.50;98.20;;;;;;5022653;28;20044;-49
2021/12/06 11:21:19;;;;;;;5.25;3.05;;;8.50;98.20;;;;;;5021540;28;20404;-50
2021/12/06 11:23:56;;;;;;;8.43;2.97;;;8.60;98.20;;;;;;5022963;28;20025;-49
2021/12/06 11:26:22;;;;;;;8.85;3.20;;;8.60;98.20;;;;;;5023558;28;20579;-49
2021/12/06 11:28:47;;;;;;;8.00;3.63;;;8.50;98.20;;;;;;5020264;28;20137;-50
2021/12/06 11:31:16;;;;;;;5.88;3.78;;;8.60;98.30;;;;;;5017242;28;20492;-49
2021/12/06 11:33:42;;;;;;;7.72;3.40;;;8.50;98.30;;;;;;5022993;28;20045;-50
2021/12/06 11:36:23;;;;;;;5.93;2.65;;;8.60;98.30;;;;;;5023388;28;20021;-50
2021/12/06 11:39:05;;;;;;;8.07;3.50;;;8.60;98.20;;;;;;5021703;28;20133;-49
2021/12/06 11:41:31;;;;;;;5.97;3.10;;;8.60;98.30;;;;;;5020758;28;20038;-49
2021/12/06 11:44:23;;;;;;;5.40;2.90;;;8.60;98.20;;;;;;5021334;28;20033;-49
2021/12/06 11:46:59;;;;;;;7.38;3.45;;;8.60;98.30;;;;;;5015135;28;20028;-49
2021/12/06 11:49:32;;;;;;;7.25;3.13;;;8.60;98.30;;;;;;5018783;28;20026;-49
2021/12/06 11:51:58;;;;;;;6.82;3.33;;;8.60;98.20;;;;;;5020945;28;20026;-49
2021/12/06 11:54:24;;;;;;;8.00;3.50;;;8.60;98.20;;;;;;5020797;28;20524;-49
2021/12/06 11:56:51;;;;;;;9.65;3.35;;;8.60;98.30;;;;;;5022629;28;20144;-49
2021/12/06 11:59:18;;;;;;;10.43;3.95;;;8.60;98.30;;;;;;5021496;28;20040;-49
2021/12/06 12:01:53;;;;;;;6.07;3.03;;;8.60;98.30;;;;;;5016096;28;20461;-49
2021/12/06 12:04:22;;;;;;;3.97;2.35;;;8.60;98.30;;;;;;5020650;28;20026;-50
2021/12/06 12:06:55;;;;;;;3.92;2.35;;;8.60;98.40;;;;;;5022183;28;20029;-49
2021/12/06 12:09:25;;;;;;;4.50;2.47;;;8.60;98.50;;;;;;5022200;28;20036;-49
2021/12/06 12:12:08;;;;;;;4.00;2.03;;;8.60;98.60;;;;;;5021231;28;20033;-49
2021/12/06 12:14:41;;;;;;;10.40;3.05;;;8.60;98.70;;;;;;5021864;28;20030;-49
2021/12/06 12:17:09;;;;;;;8.45;3.72;;;8.60;98.80;;;;;;5015770;28;20068;-49
2021/12/06 12:19:34;;;;;;;4.57;2.88;;;8.60;98.80;;;;;;5019839;28;20029;-50
2021/12/06 12:22:01;;;;;;;5.90;3.20;;;8.60;98.70;;;;;;5020914;28;20030;-50
2021/12/06 12:24:26;;;;;;;5.93;3.05;;;8.60;98.60;;;;;;5021680;28;20105;-50
2021/12/06 12:27:08;;;;;;;6.38;3.03;;;8.60;98.60;;;;;;5019526;28;20167;-50
2021/12/06 12:29:34;;;;;;;6.78;3.80;;;8.70;98.70;;;;;;5020763;28;20034;-49
2021/12/06 12:32:04;;;;;;;5.00;2.92;;;8.60;98.90;;;;;;5018797;28;20033;-50
2021/12/06 12:34:35;;;;;;;5.05;2.45;;;8.60;98.70;;;;;;5022266;28;20077;-49
2021/12/06 12:37:03;;;;;;;6.63;2.88;;;8.60;98.70;;;;;;5018918;28;20033;-49
2021/12/06 12:39:30;;;;;;;7.20;2.90;;;8.60;98.70;;;;;;5019925;28;20022;-49
2021/12/06 12:42:00;;;;;;;8.70;3.40;;;8.60;98.70;;;;;;5022800;28;20034;-50
2021/12/06 12:44:47;;;;;;;7.68;3.33;;;8.60;98.80;;;;;;5021447;28;20053;-49
2021/12/06 12:47:23;;;;;;;4.38;3.05;;;8.70;98.70;;;;;;5016413;28;20033;-50
2021/12/06 12:49:52;;;;;;;9.50;3.53;;;8.70;98.70;;;;;;5019416;28;20113;-49
2021/12/06 12:52:37;;;;;;;5.75;2.97;;;8.70;98.70;;;;;;5019875;28;20079;-49
2021/12/06 12:55:27;;;;;;;4.70;2.67;;;8.70;98.70;;;;;;5018996;28;20018;-49
2021/12/06 12:58:05;;;;;;;7.13;3.53;;;8.70;98.60;;;;;;5021896;28;20021;-50
2021/12/06 13:00:31;;;;;;;4.85;2.72;;;8.70;98.70;;;;;;5020600;28;20077;-49
2021/12/06 13:02:57;;;;;;;3.25;2.08;;;8.70;98.60;;;;;;5016869;28;20357;-49
2021/12/06 13:05:28;;;;;;;5.97;2.95;;;8.70;98.60;;;;;;5019800;28;20034;-50
2021/12/06 13:07:59;;;;;;;4.55;2.50;;;8.70;98.60;;;;;;5023261;28;20076;-49